Time;durP1;ratioP1;P1;durP2;ratioP2;P2;SDS_P1;SDS_P2;PMS_P1;PMS_P2;Temp;Humidity;BMP_temperature;BMP_pressure;BME280_temperature;BME280_humidity;BME280_pressure;Samples;Min_cycle;Max_cycle;Signal;HPM_P1;HPM_P2
2022/12/10 00:02:05;;;;;;;;;;;;;;;;;;10455269;28;19994;-68
2022/12/10 00:07:07;;;;;;;;;;;;;;;;;;10455649;28;19925;-68
2022/12/10 00:12:09;;;;;;;;;;;;;;;;;;10455335;28;19925;-68
2022/12/10 00:17:11;;;;;;;;;;;;;;;;;;10456177;28;19979;-68
2022/12/10 00:22:14;;;;;;;;;;;;;;;;;;10462142;28;19931;-68
2022/12/10 00:27:16;;;;;;;;;;;;;;;;;;10462875;28;19932;-68
2022/12/10 00:32:18;;;;;;;;;;;;;;;;;;10462082;28;19932;-68
2022/12/10 00:37:20;;;;;;;;;;;;;;;;;;10463046;28;19925;-68
2022/12/10 00:42:22;;;;;;;;;;;;;;;;;;10462287;28;19933;-68
2022/12/10 00:47:24;;;;;;;;;;;;;;;;;;10443623;28;19951;-68
2022/12/10 00:52:26;;;;;;;;;;;;;;;;;;10461888;28;20351;-68
2022/12/10 00:57:28;;;;;;;;;;;;;;;;;;10460698;28;19924;-68
2022/12/10 01:02:30;;;;;;;;;;;;;;;;;;10461720;28;20352;-68
2022/12/10 01:07:32;;;;;;;;;;;;;;;;;;10461136;28;19931;-68
2022/12/10 01:12:34;;;;;;;;;;;;;;;;;;10460085;28;19928;-68
2022/12/10 01:17:37;;;;;;;;;;;;;;;;;;10472983;22;19924;-61
2022/12/10 01:22:39;;;;;;;;;;;;;;;;;;10502818;28;19924;-61
2022/12/10 01:27:41;;;;;;;;;;;;;;;;;;10501645;28;19932;-61
2022/12/10 01:32:43;;;;;;;;;;;;;;;;;;10500858;28;19928;-61
2022/12/10 01:37:45;;;;;;;;;;;;;;;;;;10501489;28;19985;-61
2022/12/10 01:42:47;;;;;;;;;;;;;;;;;;10501953;28;19931;-61
2022/12/10 01:47:49;;;;;;;;;;;;;;;;;;10500329;28;20405;-61
2022/12/10 01:52:51;;;;;;;;;;;;;;;;;;10500106;28;20283;-61
2022/12/10 01:57:53;;;;;;;;;;;;;;;;;;10500283;28;19939;-61
2022/12/10 02:02:55;;;;;;;;;;;;;;;;;;10500460;28;20359;-61
2022/12/10 02:07:57;;;;;;;;;;;;;;;;;;10500252;28;19955;-61
2022/12/10 02:12:59;;;;;;;;;;;;;;;;;;10500007;28;19928;-61
2022/12/10 02:18:01;;;;;;;;;;;;;;;;;;10500209;28;19931;-61
2022/12/10 02:23:03;;;;;;;;;;;;;;;;;;10499826;28;20256;-61
2022/12/10 02:28:05;;;;;;;;;;;;;;;;;;10498477;28;19924;-61
2022/12/10 02:33:07;;;;;;;;;;;;;;;;;;10499908;28;19978;-61
2022/12/10 02:38:09;;;;;;;;;;;;;;;;;;10499184;28;19948;-61
2022/12/10 02:43:11;;;;;;;;;;;;;;;;;;10497886;28;19924;-61
2022/12/10 02:48:14;;;;;;;;;;;;;;;;;;10498916;28;20322;-61
2022/12/10 02:53:16;;;;;;;;;;;;;;;;;;10497875;28;20037;-61
2022/12/10 02:58:18;;;;;;;;;;;;;;;;;;10498416;28;19928;-61
2022/12/10 03:03:20;;;;;;;;;;;;;;;;;;10498509;28;20329;-61
2022/12/10 03:08:22;;;;;;;;;;;;;;;;;;10499080;28;19925;-60
2022/12/10 03:13:24;;;;;;;;;;;;;;;;;;10497404;28;19924;-60
2022/12/10 03:18:26;;;;;;;;;;;;;;;;;;10498040;28;19986;-61
2022/12/10 03:23:28;;;;;;;;;;;;;;;;;;10497217;28;20290;-60
2022/12/10 03:28:31;;;;;;;;;;;;;;;;;;10497892;28;19924;-61
2022/12/10 03:33:33;;;;;;;;;;;;;;;;;;10497612;28;19954;-61
2022/12/10 03:38:35;;;;;;;;;;;;;;;;;;10497775;28;20360;-61
2022/12/10 03:43:37;;;;;;;;;;;;;;;;;;10497596;28;19932;-61
2022/12/10 03:48:39;;;;;;;;;;;;;;;;;;10498272;28;19979;-61
2022/12/10 03:53:41;;;;;;;;;;;;;;;;;;10497772;28;19929;-61
2022/12/10 03:58:43;;;;;;;;;;;;;;;;;;10505364;28;20030;-61
2022/12/10 04:03:45;;;;;;;;;;;;;;;;;;10505193;28;20387;-61
2022/12/10 04:08:47;;;;;;;;;;;;;;;;;;10504769;28;19931;-61
2022/12/10 04:19:11;;;;;;;;;;;;;;;;;;10504776;28;19951;-61
2022/12/10 04:29:33;;;;;;;;;;;;;;;;;;10503301;28;19924;-61
2022/12/10 04:34:35;;;;;;;;;;;;;;;;;;10504678;28;19924;-61
2022/12/10 04:39:37;;;;;;;;;;;;;;;;;;10503794;28;20291;-61
2022/12/10 04:44:39;;;;;;;;;;;;;;;;;;10503543;28;19932;-61
2022/12/10 04:49:42;;;;;;;;;;;;;;;;;;10503503;28;19994;-61
2022/12/10 04:54:44;;;;;;;;;;;;;;;;;;10503231;28;19970;-61
2022/12/10 04:59:46;;;;;;;;;;;;;;;;;;10503674;28;19982;-61
2022/12/10 05:04:48;;;;;;;;;;;;;;;;;;10502670;28;19925;-61
2022/12/10 05:09:50;;;;;;;;;;;;;;;;;;10501438;28;20405;-61
2022/12/10 05:14:52;;;;;;;;;;;;;;;;;;10502512;28;19974;-61
2022/12/10 05:19:54;;;;;;;;;;;;;;;;;;10502267;28;19928;-61
2022/12/10 05:24:56;;;;;;;;;;;;;;;;;;10501829;28;19929;-61
2022/12/10 05:29:58;;;;;;;;;;;;;;;;;;10501561;28;19929;-61
2022/12/10 05:35:00;;;;;;;;;;;;;;;;;;10501692;28;20421;-61
2022/12/10 05:40:02;;;;;;;;;;;;;;;;;;10502060;28;19931;-61
2022/12/10 05:45:04;;;;;;;;;;;;;;;;;;10500887;28;19931;-61
2022/12/10 05:50:07;;;;;;;;;;;;;;;;;;10501079;28;20291;-61
2022/12/10 05:55:09;;;;;;;;;;;;;;;;;;10499960;28;19929;-61
2022/12/10 06:00:11;;;;;;;;;;;;;;;;;;10501197;28;19928;-61
2022/12/10 06:05:13;;;;;;;;;;;;;;;;;;10501039;28;19924;-61
2022/12/10 06:10:15;;;;;;;;;;;;;;;;;;10500171;28;19939;-61
2022/12/10 06:15:17;;;;;;;;;;;;;;;;;;10498393;28;20329;-61
2022/12/10 06:20:19;;;;;;;;;;;;;;;;;;10499694;28;19928;-61
2022/12/10 06:25:21;;;;;;;;;;;;;;;;;;10500424;28;19928;-61
2022/12/10 06:30:23;;;;;;;;;;;;;;;;;;10499165;28;19924;-61
2022/12/10 06:35:26;;;;;;;;;;;;;;;;;;10498301;28;19934;-61
2022/12/10 06:40:28;;;;;;;;;;;;;;;;;;10499743;28;19924;-61
2022/12/10 06:45:30;;;;;;;;;;;;;;;;;;10498989;28;20326;-61
2022/12/10 06:50:32;;;;;;;;;;;;;;;;;;10498095;28;19928;-61
2022/12/10 06:55:34;;;;;;;;;;;;;;;;;;10499396;28;19970;-61
2022/12/10 07:00:36;;;;;;;;;;;;;;;;;;10498284;28;19978;-61
2022/12/10 07:05:38;;;;;;;;;;;;;;;;;;10498704;28;20325;-61
2022/12/10 07:10:40;;;;;;;;;;;;;;;;;;10499057;28;19928;-61
2022/12/10 07:15:42;;;;;;;;;;;;;;;;;;10497660;28;20338;-61
2022/12/10 07:20:44;;;;;;;;;;;;;;;;;;10497707;28;19980;-61
2022/12/10 07:25:46;;;;;;;;;;;;;;;;;;10498699;28;19932;-61
2022/12/10 07:30:48;;;;;;;;;;;;;;;;;;10499620;28;20606;-61
2022/12/10 07:35:50;;;;;;;;;;;;;;;;;;10507044;28;19978;-61
2022/12/10 07:40:53;;;;;;;;;;;;;;;;;;10505746;28;19925;-61
2022/12/10 07:45:55;;;;;;;;;;;;;;;;;;10506685;28;19925;-61
2022/12/10 07:50:57;;;;;;;;;;;;;;;;;;10506487;28;19928;-61
2022/12/10 07:55:59;;;;;;;;;;;;;;;;;;10505114;28;20371;-61
2022/12/10 08:01:01;;;;;;;;;;;;;;;;;;10504249;28;19929;-61
2022/12/10 08:06:04;;;;;;;;;;;;;;;;;;10505825;28;19999;-61
2022/12/10 08:11:06;;;;;;;;;;;;;;;;;;10505019;28;19990;-61
2022/12/10 08:16:08;;;;;;;;;;;;;;;;;;10504384;28;19978;-61
2022/12/10 08:21:10;;;;;;;;;;;;;;;;;;10504598;28;19947;-61
2022/12/10 08:26:12;;;;;;;;;;;;;;;;;;10503927;28;19928;-61
2022/12/10 08:31:14;;;;;;;;;;;;;;;;;;10504203;28;19947;-61
2022/12/10 08:36:16;;;;;;;;;;;;;;;;;;10503810;28;19970;-61
2022/12/10 08:41:18;;;;;;;;;;;;;;;;;;10500907;28;20375;-61
2022/12/10 08:46:20;;;;;;;;;;;;;;;;;;10501715;28;19974;-61
2022/12/10 08:51:22;;;;;;;;;;;;;;;;;;10501170;28;19924;-61
2022/12/10 08:56:24;;;;;;;;;;;;;;;;;;10501549;28;19931;-61
2022/12/10 09:01:26;;;;;;;;;;;;;;;;;;10503160;28;19928;-61
2022/12/10 09:06:28;;;;;;;;;;;;;;;;;;10503557;28;20015;-61
2022/12/10 09:11:31;;;;;;;;;;;;;;;;;;10502756;28;20280;-61
2022/12/10 09:16:33;;;;;;;;;;;;;;;;;;10502606;28;20371;-61
2022/12/10 09:21:35;;;;;;;;;;;;;;;;;;10502515;28;20007;-61
2022/12/10 09:26:37;;;;;;;;;;;;;;;;;;10484968;28;19932;-61
2022/12/10 09:31:39;;;;;;;;;;;;;;;;;;10501901;28;20297;-61
2022/12/10 09:36:41;;;;;;;;;;;;;;;;;;10501858;28;19924;-61
2022/12/10 09:41:43;;;;;;;;;;;;;;;;;;10502136;28;19970;-61
2022/12/10 09:46:45;;;;;;;;;;;;;;;;;;10501984;28;19924;-61
2022/12/10 09:51:47;;;;;;;;;;;;;;;;;;10500660;28;19928;-61
2022/12/10 09:56:50;;;;;;;;;;;;;;;;;;10501466;28;19924;-61
2022/12/10 10:01:52;;;;;;;;;;;;;;;;;;10499379;28;19924;-61
2022/12/10 10:06:54;;;;;;;;;;;;;;;;;;10500957;28;19947;-61
2022/12/10 10:11:56;;;;;;;;;;;;;;;;;;10500860;28;19931;-61
2022/12/10 10:16:58;;;;;;;;;;;;;;;;;;10500661;28;19928;-61
2022/12/10 10:22:01;;;;;;;;;;;;;;;;;;10499731;28;19935;-61
2022/12/10 10:27:03;;;;;;;;;;;;;;;;;;10500281;28;19928;-61
2022/12/10 10:32:05;;;;;;;;;;;;;;;;;;10500053;28;19928;-62
2022/12/10 10:37:07;;;;;;;;;;;;;;;;;;10499275;28;20034;-61
2022/12/10 10:42:09;;;;;;;;;;;;;;;;;;10499708;28;19924;-61
2022/12/10 10:47:11;;;;;;;;;;;;;;;;;;10499634;28;19925;-61
2022/12/10 10:52:13;;;;;;;;;;;;;;;;;;10499501;28;19977;-61
2022/12/10 10:57:16;;;;;;;;;;;;;;;;;;10499336;28;19925;-61
2022/12/10 11:02:18;;;;;;;;;;;;;;;;;;10499201;28;19925;-61
2022/12/10 11:07:21;;;;;;;;;;;;;;;;;;10495046;28;19928;-61
2022/12/10 11:12:23;;;;;;;;;;;;;;;;;;10498441;28;19994;-61
2022/12/10 11:17:25;;;;;;;;;;;;;;;;;;10480519;28;20371;-61
2022/12/10 11:22:27;;;;;;;;;;;;;;;;;;10496244;28;19929;-61
2022/12/10 11:27:29;;;;;;;;;;;;;;;;;;10498076;28;19925;-61
2022/12/10 11:32:31;;;;;;;;;;;;;;;;;;10498650;28;19932;-61
2022/12/10 11:37:33;;;;;;;;;;;;;;;;;;10494304;28;19928;-61
2022/12/10 11:42:36;;;;;;;;;;;;;;;;;;10496112;28;20011;-61
2022/12/10 11:47:38;;;;;;;;;;;;;;;;;;10496476;28;19924;-61
2022/12/10 11:52:40;;;;;;;;;;;;;;;;;;10498130;28;19928;-61
2022/12/10 11:57:42;;;;;;;;;;;;;;;;;;10495106;28;20389;-61
2022/12/10 12:02:44;;;;;;;;;;;;;;;;;;10495321;28;19924;-61
2022/12/10 12:07:46;;;;;;;;;;;;;;;;;;10497290;28;19925;-61
2022/12/10 12:12:48;;;;;;;;;;;;;;;;;;10496746;28;19931;-61
2022/12/10 12:17:57;;;;;;;;;;;;;;;;;;10503160;28;19931;-61
2022/12/10 12:22:59;;;;;;;;;;;;;;;;;;10504512;28;19947;-61
2022/12/10 12:28:01;;;;;;;;;;;;;;;;;;10504461;28;20341;-61
2022/12/10 12:33:03;;;;;;;;;;;;;;;;;;10504983;28;19924;-61
2022/12/10 12:38:05;;;;;;;;;;;;;;;;;;10504661;28;19924;-61
2022/12/10 12:43:07;;;;;;;;;;;;;;;;;;10504560;28;19925;-61
2022/12/10 12:48:09;;;;;;;;;;;;;;;;;;10504388;28;19924;-61
2022/12/10 12:53:11;;;;;;;;;;;;;;;;;;10504177;28;19933;-61
2022/12/10 12:58:13;;;;;;;;;;;;;;;;;;10503901;28;19925;-61
2022/12/10 13:03:16;;;;;;;;;;;;;;;;;;10503178;28;19924;-61
2022/12/10 13:08:18;;;;;;;;;;;;;;;;;;10503142;28;19932;-61
2022/12/10 13:13:20;;;;;;;;;;;;;;;;;;10501970;28;19978;-61
2022/12/10 13:18:22;;;;;;;;;;;;;;;;;;10503408;28;19932;-61
2022/12/10 13:23:24;;;;;;;;;;;;;;;;;;10502322;28;20260;-61
2022/12/10 13:28:26;;;;;;;;;;;;;;;;;;10501100;28;19925;-61
2022/12/10 13:33:28;;;;;;;;;;;;;;;;;;10497343;22;20379;-67
2022/12/10 13:38:30;;;;;;;;;;;;;;;;;;10463703;28;19925;-69
2022/12/10 13:48:53;;;;;;;;;;;;;;;;;;10459889;28;19933;-68
2022/12/10 13:53:55;;;;;;;;;;;;;;;;;;10459686;28;19948;-68
2022/12/10 13:58:57;;;;;;;;;;;;;;;;;;10459379;28;19951;-69
2022/12/10 14:03:59;;;;;;;;;;;;;;;;;;10457703;28;19925;-69
2022/12/10 14:09:02;;;;;;;;;;;;;;;;;;10459952;28;19974;-69
2022/12/10 14:14:04;;;;;;;;;;;;;;;;;;10458980;28;19951;-69
2022/12/10 14:19:06;;;;;;;;;;;;;;;;;;10459307;28;19928;-69
2022/12/10 14:24:08;;;;;;;;;;;;;;;;;;10458388;28;20375;-68
2022/12/10 14:29:10;;;;;;;;;;;;;;;;;;10458406;28;20330;-68
2022/12/10 14:34:12;;;;;;;;;;;;;;;;;;10458176;28;19995;-68
2022/12/10 14:39:14;;;;;;;;;;;;;;;;;;10458502;28;19925;-68
2022/12/10 14:44:16;;;;;;;;;;;;;;;;;;10458455;28;19925;-68
2022/12/10 14:49:19;;;;;;;;;;;;;;;;;;10457617;28;19948;-68
2022/12/10 14:54:21;;;;;;;;;;;;;;;;;;10442924;28;19925;-68
2022/12/10 14:59:23;;;;;;;;;;;;;;;;;;10416746;28;19936;-68
2022/12/10 15:04:25;;;;;;;;;;;;;;;;;;10416584;28;19925;-68
2022/12/10 15:09:28;;;;;;;;;;;;;;;;;;10415795;28;19948;-68
2022/12/10 15:14:30;;;;;;;;;;;;;;;;;;10416331;28;19926;-68
2022/12/10 15:19:32;;;;;;;;;;;;;;;;;;10415741;28;19971;-68
2022/12/10 15:24:34;;;;;;;;;;;;;;;;;;10415494;28;20291;-68
2022/12/10 15:29:36;;;;;;;;;;;;;;;;;;10415442;28;20376;-68
2022/12/10 15:34:39;;;;;;;;;;;;;;;;;;10415519;28;19925;-68
2022/12/10 15:39:41;;;;;;;;;;;;;;;;;;10415812;28;19925;-69
2022/12/10 15:44:43;;;;;;;;;;;;;;;;;;10415220;28;20307;-69
2022/12/10 15:49:45;;;;;;;;;;;;;;;;;;10417885;28;19929;-68
2022/12/10 15:54:47;;;;;;;;;;;;;;;;;;10463339;28;19925;-69
2022/12/10 15:59:49;;;;;;;;;;;;;;;;;;10464060;28;19932;-68
2022/12/10 16:04:51;;;;;;;;;;;;;;;;;;10459060;28;20006;-69
2022/12/10 16:09:53;;;;;;;;;;;;;;;;;;10463708;28;19925;-69
2022/12/10 16:14:59;;;;;;;;;;;;;;;;;;10462473;28;19979;-68
2022/12/10 16:20:01;;;;;;;;;;;;;;;;;;10462638;28;19925;-69
2022/12/10 16:25:04;;;;;;;;;;;;;;;;;;10462451;28;19933;-69
2022/12/10 16:30:06;;;;;;;;;;;;;;;;;;10461912;28;19928;-68
2022/12/10 16:35:08;;;;;;;;;;;;;;;;;;10460870;28;20438;-69
2022/12/10 16:40:10;;;;;;;;;;;;;;;;;;10444447;28;19939;-68
2022/12/10 16:45:12;;;;;;;;;;;;;;;;;;10458260;28;20013;-67
2022/12/10 16:50:14;;;;;;;;;;;;;;;;;;10457866;28;19928;-67
2022/12/10 16:55:16;;;;;;;;;;;;;;;;;;10458259;28;19979;-67
2022/12/10 17:00:19;;;;;;;;;;;;;;;;;;10461333;28;19931;-67
2022/12/10 17:05:21;;;;;;;;;;;;;;;;;;10458712;28;19987;-67
2022/12/10 17:15:44;;;;;;;;;;;;;;;;;;10460048;28;19929;-69
2022/12/10 17:20:46;;;;;;;;;;;;;;;;;;10459992;28;19925;-69
2022/12/10 17:25:48;;;;;;;;;;;;;;;;;;10460217;28;20323;-69
2022/12/10 17:30:50;;;;;;;;;;;;;;;;;;10458887;28;20333;-69
2022/12/10 17:35:53;;;;;;;;;;;;;;;;;;10416074;28;19925;-69
2022/12/10 17:40:55;;;;;;;;;;;;;;;;;;10444060;28;20414;-69
2022/12/10 17:45:57;;;;;;;;;;;;;;;;;;10419272;28;19925;-69
2022/12/10 17:51:00;;;;;;;;;;;;;;;;;;10417018;28;20284;-69
2022/12/10 17:56:02;;;;;;;;;;;;;;;;;;10417558;28;20415;-69
2022/12/10 18:01:04;;;;;;;;;;;;;;;;;;10418030;28;19979;-69
2022/12/10 18:06:06;;;;;;;;;;;;;;;;;;10416354;28;19931;-69
2022/12/10 18:11:08;;;;;;;;;;;;;;;;;;10417523;28;19947;-69
2022/12/10 18:16:10;;;;;;;;;;;;;;;;;;10417237;28;19925;-69
2022/12/10 18:21:12;;;;;;;;;;;;;;;;;;10415857;28;19952;-67
2022/12/10 18:26:14;;;;;;;;;;;;;;;;;;10414816;28;20355;-67
2022/12/10 18:31:17;;;;;;;;;;;;;;;;;;10415171;28;20426;-67
2022/12/10 18:36:19;;;;;;;;;;;;;;;;;;10445587;28;19971;-67
2022/12/10 18:41:25;;;;;;;;;;;;;;;;;;10456915;28;19951;-67
2022/12/10 18:46:27;;;;;;;;;;;;;;;;;;10456540;28;19979;-67
2022/12/10 18:51:30;;;;;;;;;;;;;;;;;;10457491;28;19986;-67
2022/12/10 18:56:33;;;;;;;;;;;;;;;;;;10457437;28;19925;-67
2022/12/10 19:01:35;;;;;;;;;;;;;;;;;;10437474;28;19925;-67
2022/12/10 19:06:38;;;;;;;;;;;;;;;;;;10453679;28;20364;-67
2022/12/10 19:11:40;;;;;;;;;;;;;;;;;;10451953;28;20371;-67
2022/12/10 19:16:42;;;;;;;;;;;;;;;;;;10454055;28;19979;-67
2022/12/10 19:21:44;;;;;;;;;;;;;;;;;;10457409;28;19933;-67
2022/12/10 19:26:46;;;;;;;;;;;;;;;;;;10455972;28;19925;-67
2022/12/10 19:31:49;;;;;;;;;;;;;;;;;;10456043;28;19925;-67
2022/12/10 19:36:54;;;;;;;;;;;;;;;;;;10451496;28;20016;-67
2022/12/10 19:41:57;;;;;;;;;;;;;;;;;;10398363;28;19928;-67
2022/12/10 19:46:59;;;;;;;;;;;;;;;;;;10415819;28;19925;-67
2022/12/10 19:52:01;;;;;;;;;;;;;;;;;;10422253;28;19925;-67
2022/12/10 19:57:04;;;;;;;;;;;;;;;;;;10456030;28;20106;-67
2022/12/10 20:02:06;;;;;;;;;;;;;;;;;;10455217;28;20442;-67
2022/12/10 20:07:08;;;;;;;;;;;;;;;;;;10455422;28;20524;-67
2022/12/10 20:12:10;;;;;;;;;;;;;;;;;;10414668;28;20384;-67
2022/12/10 20:17:19;;;;;;;;;;;;;;;;;;10449357;28;19925;-67
2022/12/10 20:22:21;;;;;;;;;;;;;;;;;;10455770;28;20403;-67
2022/12/10 20:27:23;;;;;;;;;;;;;;;;;;10455553;28;19925;-67
2022/12/10 20:32:25;;;;;;;;;;;;;;;;;;10454493;28;19928;-67
2022/12/10 20:37:28;;;;;;;;;;;;;;;;;;10458250;28;19931;-67
2022/12/10 20:42:30;;;;;;;;;;;;;;;;;;10462569;28;19994;-67
2022/12/10 20:47:32;;;;;;;;;;;;;;;;;;10463104;28;19925;-67
2022/12/10 20:52:40;;;;;;;;;;;;;;;;;;10462018;28;19928;-67
2022/12/10 20:57:42;;;;;;;;;;;;;;;;;;10462182;28;19925;-67
2022/12/10 21:02:44;;;;;;;;;;;;;;;;;;10461401;28;19929;-67
2022/12/10 21:07:46;;;;;;;;;;;;;;;;;;10461699;28;20368;-67
2022/12/10 21:12:49;;;;;;;;;;;;;;;;;;10460350;28;19929;-67
2022/12/10 21:17:51;;;;;;;;;;;;;;;;;;10461273;28;19995;-67
2022/12/10 21:22:53;;;;;;;;;;;;;;;;;;10443431;28;19924;-67
2022/12/10 21:27:57;;;;;;;;;;;;;;;;;;10459793;28;21306;-67
2022/12/10 21:32:59;;;;;;;;;;;;;;;;;;10460922;28;19925;-67
2022/12/10 21:38:02;;;;;;;;;;;;;;;;;;10459056;28;19931;-67
2022/12/10 21:43:16;;;;;;;;;;;;;;;;;;10457300;28;19925;-67
2022/12/10 21:48:18;;;;;;;;;;;;;;;;;;10457919;28;19929;-67
2022/12/10 21:53:21;;;;;;;;;;;;;;;;;;10457698;28;20030;-67
2022/12/10 21:58:23;;;;;;;;;;;;;;;;;;10457577;28;19924;-67
2022/12/10 22:03:25;;;;;;;;;;;;;;;;;;10454571;28;19951;-67
2022/12/10 22:08:27;;;;;;;;;;;;;;;;;;10453825;28;19925;-67
2022/12/10 22:13:29;;;;;;;;;;;;;;;;;;10454085;28;19925;-67
2022/12/10 22:18:31;;;;;;;;;;;;;;;;;;10455758;28;20337;-67
2022/12/10 22:23:33;;;;;;;;;;;;;;;;;;10456914;28;20438;-67
2022/12/10 22:28:35;;;;;;;;;;;;;;;;;;10456035;28;19974;-67
2022/12/10 22:33:37;;;;;;;;;;;;;;;;;;10394086;28;1782761;-67
2022/12/10 22:38:39;;;;;;;;;;;;;;;;;;10457766;28;19932;-67
2022/12/10 22:43:41;;;;;;;;;;;;;;;;;;10457887;28;20426;-67
2022/12/10 22:48:52;;;;;;;;;;;;;;;;;;10458341;28;19928;-67
2022/12/10 22:53:55;;;;;;;;;;;;;;;;;;10456948;28;19925;-67
2022/12/10 22:58:58;;;;;;;;;;;;;;;;;;10456968;28;19936;-66
2022/12/10 23:04:00;;;;;;;;;;;;;;;;;;10457526;28;20261;-67
2022/12/10 23:09:02;;;;;;;;;;;;;;;;;;10457753;28;19931;-67
2022/12/10 23:14:04;;;;;;;;;;;;;;;;;;10456343;28;20425;-67
2022/12/10 23:19:06;;;;;;;;;;;;;;;;;;10456935;28;20318;-67
2022/12/10 23:24:08;;;;;;;;;;;;;;;;;;10456742;28;19925;-66
2022/12/10 23:29:10;;;;;;;;;;;;;;;;;;10456380;28;19955;-66
2022/12/10 23:34:12;;;;;;;;;;;;;;;;;;10455557;28;19924;-66
2022/12/10 23:39:15;;;;;;;;;;;;;;;;;;10456538;28;19932;-67
2022/12/10 23:44:17;;;;;;;;;;;;;;;;;;10456919;28;19971;-66
2022/12/10 23:49:19;;;;;;;;;;;;;;;;;;10455612;28;19925;-66
2022/12/10 23:54:21;;;;;;;;;;;;;;;;;;10438397;28;19925;-66
2022/12/10 23:59:23;;;;;;;;;;;;;;;;;;10455073;28;20288;-66
